sensor_id;sensor_type;location;lat;lon;timestamp;P1;durP1;ratioP1;P2;durP2;ratioP2
66575;SDS011;53428;47.686;16.584;2023-04-01T00:01:40;7.47;;;3.30;;
66575;SDS011;53428;47.686;16.584;2023-04-01T00:06:39;4.72;;;2.42;;
66575;SDS011;53428;47.686;16.584;2023-04-01T00:11:39;6.72;;;2.42;;
66575;SDS011;53428;47.686;16.584;2023-04-01T00:16:39;4.25;;;2.70;;
66575;SDS011;53428;47.686;16.584;2023-04-01T00:21:38;2.78;;;2.33;;
66575;SDS011;53428;47.686;16.584;2023-04-01T00:26:38;4.80;;;2.90;;
66575;SDS011;53428;47.686;16.584;2023-04-01T00:31:37;3.22;;;2.53;;
66575;SDS011;53428;47.686;16.584;2023-04-01T00:36:36;6.07;;;2.58;;
66575;SDS011;53428;47.686;16.584;2023-04-01T00:41:37;6.45;;;3.05;;
66575;SDS011;53428;47.686;16.584;2023-04-01T00:46:36;9.88;;;3.10;;
66575;SDS011;53428;47.686;16.584;2023-04-01T00:51:36;8.45;;;1.50;;
66575;SDS011;53428;47.686;16.584;2023-04-01T00:56:37;7.00;;;2.90;;
66575;SDS011;53428;47.686;16.584;2023-04-01T01:01:42;10.80;;;3.10;;
66575;SDS011;53428;47.686;16.584;2023-04-01T01:22:36;3.47;;;2.13;;
66575;SDS011;53428;47.686;16.584;2023-04-01T01:27:56;3.67;;;2.20;;
66575;SDS011;53428;47.686;16.584;2023-04-01T01:33:06;6.10;;;2.60;;
66575;SDS011;53428;47.686;16.584;2023-04-01T01:38:15;3.75;;;1.63;;
66575;SDS011;53428;47.686;16.584;2023-04-01T01:43:17;2.40;;;1.20;;
66575;SDS011;53428;47.686;16.584;2023-04-01T01:48:22;4.30;;;0.85;;
66575;SDS011;53428;47.686;16.584;2023-04-01T01:53:23;1.10;;;0.80;;
66575;SDS011;53428;47.686;16.584;2023-04-01T01:58:37;2.70;;;0.70;;
66575;SDS011;53428;47.686;16.584;2023-04-01T02:03:42;4.50;;;1.58;;
66575;SDS011;53428;47.686;16.584;2023-04-01T02:08:45;3.03;;;0.80;;
66575;SDS011;53428;47.686;16.584;2023-04-01T02:14:04;1.55;;;1.08;;
66575;SDS011;53428;47.686;16.584;2023-04-01T02:19:15;4.13;;;0.80;;
66575;SDS011;53428;47.686;16.584;2023-04-01T02:24:21;10.15;;;0.98;;
66575;SDS011;53428;47.686;16.584;2023-04-01T02:29:24;7.40;;;0.75;;
66575;SDS011;53428;47.686;16.584;2023-04-01T02:34:24;2.88;;;1.00;;
66575;SDS011;53428;47.686;16.584;2023-04-01T02:39:25;1.73;;;0.30;;
66575;SDS011;53428;47.686;16.584;2023-04-01T02:44:25;2.97;;;0.85;;
66575;SDS011;53428;47.686;16.584;2023-04-01T02:49:24;2.72;;;0.70;;
66575;SDS011;53428;47.686;16.584;2023-04-01T02:54:24;8.90;;;1.20;;
66575;SDS011;53428;47.686;16.584;2023-04-01T02:59:23;1.20;;;0.80;;
66575;SDS011;53428;47.686;16.584;2023-04-01T03:04:22;3.55;;;0.80;;
66575;SDS011;53428;47.686;16.584;2023-04-01T03:09:22;1.55;;;1.10;;
66575;SDS011;53428;47.686;16.584;2023-04-01T03:14:21;2.65;;;1.08;;
66575;SDS011;53428;47.686;16.584;2023-04-01T03:19:21;5.70;;;1.13;;
66575;SDS011;53428;47.686;16.584;2023-04-01T03:24:20;5.88;;;1.83;;
66575;SDS011;53428;47.686;16.584;2023-04-01T03:29:20;7.15;;;2.40;;
66575;SDS011;53428;47.686;16.584;2023-04-01T03:34:19;4.13;;;1.55;;
66575;SDS011;53428;47.686;16.584;2023-04-01T03:39:18;3.97;;;1.10;;
66575;SDS011;53428;47.686;16.584;2023-04-01T03:44:18;2.17;;;1.17;;
66575;SDS011;53428;47.686;16.584;2023-04-01T03:49:17;4.50;;;1.50;;
66575;SDS011;53428;47.686;16.584;2023-04-01T03:54:17;6.28;;;1.60;;
66575;SDS011;53428;47.686;16.584;2023-04-01T03:59:18;4.28;;;2.47;;
66575;SDS011;53428;47.686;16.584;2023-04-01T04:04:18;4.72;;;1.40;;
66575;SDS011;53428;47.686;16.584;2023-04-01T04:09:17;2.45;;;1.40;;
66575;SDS011;53428;47.686;16.584;2023-04-01T04:14:17;5.10;;;1.10;;
66575;SDS011;53428;47.686;16.584;2023-04-01T04:19:16;5.47;;;1.40;;
66575;SDS011;53428;47.686;16.584;2023-04-01T04:24:16;6.18;;;1.40;;
66575;SDS011;53428;47.686;16.584;2023-04-01T04:29:15;3.65;;;1.33;;
66575;SDS011;53428;47.686;16.584;2023-04-01T04:34:15;3.47;;;2.13;;
66575;SDS011;53428;47.686;16.584;2023-04-01T04:39:14;6.30;;;2.80;;
66575;SDS011;53428;47.686;16.584;2023-04-01T04:44:14;11.65;;;3.40;;
66575;SDS011;53428;47.686;16.584;2023-04-01T04:49:13;15.65;;;2.88;;
66575;SDS011;53428;47.686;16.584;2023-04-01T04:54:12;9.98;;;2.92;;
66575;SDS011;53428;47.686;16.584;2023-04-01T04:59:12;3.35;;;1.83;;
66575;SDS011;53428;47.686;16.584;2023-04-01T05:04:11;8.93;;;2.70;;
66575;SDS011;53428;47.686;16.584;2023-04-01T05:09:11;8.52;;;2.88;;
66575;SDS011;53428;47.686;16.584;2023-04-01T05:14:16;12.90;;;3.58;;
66575;SDS011;53428;47.686;16.584;2023-04-01T05:19:15;6.28;;;2.67;;
66575;SDS011;53428;47.686;16.584;2023-04-01T05:24:15;7.05;;;3.72;;
66575;SDS011;53428;47.686;16.584;2023-04-01T05:29:14;8.45;;;3.30;;
66575;SDS011;53428;47.686;16.584;2023-04-01T05:34:13;5.80;;;3.38;;
66575;SDS011;53428;47.686;16.584;2023-04-01T05:39:13;7.07;;;3.85;;
66575;SDS011;53428;47.686;16.584;2023-04-01T05:44:12;10.80;;;3.83;;
66575;SDS011;53428;47.686;16.584;2023-04-01T05:49:12;12.98;;;6.35;;
66575;SDS011;53428;47.686;16.584;2023-04-01T05:54:11;9.68;;;4.97;;
66575;SDS011;53428;47.686;16.584;2023-04-01T05:59:10;15.88;;;4.60;;
66575;SDS011;53428;47.686;16.584;2023-04-01T06:04:14;7.72;;;2.65;;
66575;SDS011;53428;47.686;16.584;2023-04-01T06:09:18;6.20;;;2.00;;
66575;SDS011;53428;47.686;16.584;2023-04-01T06:25:41;2.75;;;1.25;;
66575;SDS011;53428;47.686;16.584;2023-04-01T06:41:23;1.65;;;0.95;;
66575;SDS011;53428;47.686;16.584;2023-04-01T06:52:26;3.30;;;1.25;;
66575;SDS011;53428;47.686;16.584;2023-04-01T06:57:49;0.35;;;0.35;;
66575;SDS011;53428;47.686;16.584;2023-04-01T07:02:59;0.65;;;0.35;;
66575;SDS011;53428;47.686;16.584;2023-04-01T07:08:25;1.55;;;0.63;;
66575;SDS011;53428;47.686;16.584;2023-04-01T07:13:39;4.45;;;0.57;;
66575;SDS011;53428;47.686;16.584;2023-04-01T07:24:25;3.67;;;0.50;;
66575;SDS011;53428;47.686;16.584;2023-04-01T07:29:28;3.97;;;0.75;;
66575;SDS011;53428;47.686;16.584;2023-04-01T07:40:14;4.43;;;0.40;;
66575;SDS011;53428;47.686;16.584;2023-04-01T07:50:50;2.33;;;0.85;;
66575;SDS011;53428;47.686;16.584;2023-04-01T07:56:15;1.95;;;0.47;;
66575;SDS011;53428;47.686;16.584;2023-04-01T08:17:22;1.20;;;0.77;;
66575;SDS011;53428;47.686;16.584;2023-04-01T08:22:33;1.85;;;0.65;;
66575;SDS011;53428;47.686;16.584;2023-04-01T08:28:08;1.67;;;0.80;;
66575;SDS011;53428;47.686;16.584;2023-04-01T08:33:19;3.92;;;0.70;;
66575;SDS011;53428;47.686;16.584;2023-04-01T08:54:39;2.22;;;0.73;;
66575;SDS011;53428;47.686;16.584;2023-04-01T09:10:36;0.85;;;0.60;;
66575;SDS011;53428;47.686;16.584;2023-04-01T09:43:28;0.98;;;0.52;;
66575;SDS011;53428;47.686;16.584;2023-04-01T09:53:33;1.08;;;0.22;;
66575;SDS011;53428;47.686;16.584;2023-04-01T10:20:36;0.70;;;0.40;;
66575;SDS011;53428;47.686;16.584;2023-04-01T10:36:33;0.57;;;0.30;;
66575;SDS011;53428;47.686;16.584;2023-04-01T10:58:17;0.50;;;0.50;;
66575;SDS011;53428;47.686;16.584;2023-04-01T11:46:37;0.03;;;0.03;;
66575;SDS011;53428;47.686;16.584;2023-04-01T12:13:24;0.43;;;0.32;;
66575;SDS011;53428;47.686;16.584;2023-04-01T12:34:45;1.10;;;0.50;;
66575;SDS011;53428;47.686;16.584;2023-04-01T12:55:48;2.70;;;1.15;;
66575;SDS011;53428;47.686;16.584;2023-04-01T13:17:38;0.77;;;0.40;;
66575;SDS011;53428;47.686;16.584;2023-04-01T13:22:51;2.60;;;0.30;;
66575;SDS011;53428;47.686;16.584;2023-04-01T13:39:32;1.50;;;0.40;;
66575;SDS011;53428;47.686;16.584;2023-04-01T13:44:18;1.15;;;0.35;;
66575;SDS011;53428;47.686;16.584;2023-04-01T13:54:39;1.13;;;0.60;;
66575;SDS011;53428;47.686;16.584;2023-04-01T13:59:59;3.35;;;0.60;;
66575;SDS011;53428;47.686;16.584;2023-04-01T14:10:45;0.68;;;0.32;;
66575;SDS011;53428;47.686;16.584;2023-04-01T14:26:56;0.40;;;0.38;;
66575;SDS011;53428;47.686;16.584;2023-04-01T14:37:23;0.57;;;0.57;;
66575;SDS011;53428;47.686;16.584;2023-04-01T14:42:52;0.65;;;0.40;;
66575;SDS011;53428;47.686;16.584;2023-04-01T14:53:41;4.93;;;3.25;;
66575;SDS011;53428;47.686;16.584;2023-04-01T14:58:50;1.13;;;0.43;;
66575;SDS011;53428;47.686;16.584;2023-04-01T15:30:09;1.38;;;0.70;;
66575;SDS011;53428;47.686;16.584;2023-04-01T16:02:23;0.28;;;0.28;;
66575;SDS011;53428;47.686;16.584;2023-04-01T16:23:26;0.77;;;0.40;;
66575;SDS011;53428;47.686;16.584;2023-04-01T16:28:54;0.93;;;0.30;;
66575;SDS011;53428;47.686;16.584;2023-04-01T16:55:19;0.70;;;0.28;;
66575;SDS011;53428;47.686;16.584;2023-04-01T17:05:20;1.13;;;0.50;;
66575;SDS011;53428;47.686;16.584;2023-04-01T17:10:38;0.85;;;0.60;;
66575;SDS011;53428;47.686;16.584;2023-04-01T17:15:45;0.82;;;0.40;;
66575;SDS011;53428;47.686;16.584;2023-04-01T17:21:00;0.70;;;0.60;;
66575;SDS011;53428;47.686;16.584;2023-04-01T17:26:12;3.78;;;0.88;;
66575;SDS011;53428;47.686;16.584;2023-04-01T17:31:50;0.95;;;0.60;;
66575;SDS011;53428;47.686;16.584;2023-04-01T17:37:27;0.90;;;0.70;;
66575;SDS011;53428;47.686;16.584;2023-04-01T17:42:58;3.42;;;1.55;;
66575;SDS011;53428;47.686;16.584;2023-04-01T17:58:20;1.02;;;0.50;;
66575;SDS011;53428;47.686;16.584;2023-04-01T18:24:42;0.38;;;0.38;;
66575;SDS011;53428;47.686;16.584;2023-04-01T18:40:58;0.10;;;0.10;;
66575;SDS011;53428;47.686;16.584;2023-04-01T18:51:45;1.00;;;0.43;;
66575;SDS011;53428;47.686;16.584;2023-04-01T18:56:59;0.88;;;0.52;;
66575;SDS011;53428;47.686;16.584;2023-04-01T19:12:43;1.95;;;1.15;;
66575;SDS011;53428;47.686;16.584;2023-04-01T19:23:09;0.20;;;0.20;;
66575;SDS011;53428;47.686;16.584;2023-04-01T19:45:23;1.92;;;0.50;;
66575;SDS011;53428;47.686;16.584;2023-04-01T19:50:40;0.63;;;0.30;;
66575;SDS011;53428;47.686;16.584;2023-04-01T19:55:44;0.43;;;0.40;;
66575;SDS011;53428;47.686;16.584;2023-04-01T20:00:54;1.60;;;0.90;;
66575;SDS011;53428;47.686;16.584;2023-04-01T20:16:47;12.65;;;3.67;;
66575;SDS011;53428;47.686;16.584;2023-04-01T20:21:52;5.05;;;1.75;;
66575;SDS011;53428;47.686;16.584;2023-04-01T20:27:02;1.45;;;0.60;;
66575;SDS011;53428;47.686;16.584;2023-04-01T20:43:23;0.73;;;0.20;;
66575;SDS011;53428;47.686;16.584;2023-04-01T20:53:43;0.30;;;0.30;;
66575;SDS011;53428;47.686;16.584;2023-04-01T21:04:39;0.85;;;0.75;;
66575;SDS011;53428;47.686;16.584;2023-04-01T21:41:43;0.17;;;0.17;;
66575;SDS011;53428;47.686;16.584;2023-04-01T21:58:21;0.22;;;0.22;;
66575;SDS011;53428;47.686;16.584;2023-04-01T22:09:03;0.10;;;0.10;;
66575;SDS011;53428;47.686;16.584;2023-04-01T22:14:16;2.03;;;0.88;;
66575;SDS011;53428;47.686;16.584;2023-04-01T22:19:30;0.55;;;0.30;;
66575;SDS011;53428;47.686;16.584;2023-04-01T22:40:27;1.05;;;0.55;;
66575;SDS011;53428;47.686;16.584;2023-04-01T22:45:58;0.28;;;0.28;;
66575;SDS011;53428;47.686;16.584;2023-04-01T22:51:18;0.55;;;0.10;;
66575;SDS011;53428;47.686;16.584;2023-04-01T23:01:49;0.05;;;0.05;;
66575;SDS011;53428;47.686;16.584;2023-04-01T23:06:57;0.00;;;0.00;;
66575;SDS011;53428;47.686;16.584;2023-04-01T23:12:04;0.20;;;0.10;;
66575;SDS011;53428;47.686;16.584;2023-04-01T23:17:17;0.28;;;0.10;;
66575;SDS011;53428;47.686;16.584;2023-04-01T23:22:25;0.40;;;0.40;;
66575;SDS011;53428;47.686;16.584;2023-04-01T23:27:45;1.58;;;0.40;;
66575;SDS011;53428;47.686;16.584;2023-04-01T23:32:49;1.85;;;0.10;;
66575;SDS011;53428;47.686;16.584;2023-04-01T23:37:49;0.25;;;0.25;;
66575;SDS011;53428;47.686;16.584;2023-04-01T23:42:48;7.03;;;3.47;;
66575;SDS011;53428;47.686;16.584;2023-04-01T23:47:47;0.68;;;0.45;;
66575;SDS011;53428;47.686;16.584;2023-04-01T23:52:52;0.65;;;0.28;;
